sensor_id;sensor_type;location;lat;lon;timestamp;P1;durP1;ratioP1;P2;durP2;ratioP2
10458;SDS011;5277;48.722;8.736;2022-07-22T00:00:34;7.72;;;6.10;;
10458;SDS011;5277;48.722;8.736;2022-07-22T00:02:59;6.30;;;5.70;;
10458;SDS011;5277;48.722;8.736;2022-07-22T00:05:25;8.30;;;5.72;;
10458;SDS011;5277;48.722;8.736;2022-07-22T00:07:51;6.30;;;5.70;;
10458;SDS011;5277;48.722;8.736;2022-07-22T00:10:16;10.57;;;6.10;;
10458;SDS011;5277;48.722;8.736;2022-07-22T00:12:42;6.45;;;5.82;;
10458;SDS011;5277;48.722;8.736;2022-07-22T00:15:08;7.32;;;5.75;;
10458;SDS011;5277;48.722;8.736;2022-07-22T00:17:34;6.80;;;6.05;;
10458;SDS011;5277;48.722;8.736;2022-07-22T00:20:02;6.25;;;5.45;;
10458;SDS011;5277;48.722;8.736;2022-07-22T00:22:29;6.38;;;5.50;;
10458;SDS011;5277;48.722;8.736;2022-07-22T00:24:55;6.53;;;5.93;;
10458;SDS011;5277;48.722;8.736;2022-07-22T00:27:20;8.10;;;6.15;;
10458;SDS011;5277;48.722;8.736;2022-07-22T00:29:46;8.00;;;5.78;;
10458;SDS011;5277;48.722;8.736;2022-07-22T00:32:12;6.43;;;5.75;;
10458;SDS011;5277;48.722;8.736;2022-07-22T00:34:37;6.43;;;5.72;;
10458;SDS011;5277;48.722;8.736;2022-07-22T00:37:03;6.50;;;5.85;;
10458;SDS011;5277;48.722;8.736;2022-07-22T00:39:30;7.88;;;6.78;;
10458;SDS011;5277;48.722;8.736;2022-07-22T00:41:56;7.35;;;5.85;;
10458;SDS011;5277;48.722;8.736;2022-07-22T00:44:21;9.20;;;6.15;;
10458;SDS011;5277;48.722;8.736;2022-07-22T00:46:47;7.28;;;6.13;;
10458;SDS011;5277;48.722;8.736;2022-07-22T00:49:13;8.23;;;6.18;;
10458;SDS011;5277;48.722;8.736;2022-07-22T00:51:38;6.13;;;5.50;;
10458;SDS011;5277;48.722;8.736;2022-07-22T00:54:04;6.20;;;5.60;;
10458;SDS011;5277;48.722;8.736;2022-07-22T00:56:31;6.95;;;6.00;;
10458;SDS011;5277;48.722;8.736;2022-07-22T00:58:58;6.78;;;5.80;;
10458;SDS011;5277;48.722;8.736;2022-07-22T01:01:25;6.95;;;6.18;;
10458;SDS011;5277;48.722;8.736;2022-07-22T01:03:51;6.50;;;5.90;;
10458;SDS011;5277;48.722;8.736;2022-07-22T01:06:17;6.60;;;5.85;;
10458;SDS011;5277;48.722;8.736;2022-07-22T01:08:43;7.13;;;6.07;;
10458;SDS011;5277;48.722;8.736;2022-07-22T01:11:10;6.75;;;5.95;;
10458;SDS011;5277;48.722;8.736;2022-07-22T01:13:36;7.80;;;5.97;;
10458;SDS011;5277;48.722;8.736;2022-07-22T01:16:03;7.13;;;5.57;;
10458;SDS011;5277;48.722;8.736;2022-07-22T01:18:30;7.10;;;6.40;;
10458;SDS011;5277;48.722;8.736;2022-07-22T01:20:56;9.98;;;6.40;;
10458;SDS011;5277;48.722;8.736;2022-07-22T01:23:22;6.90;;;6.20;;
10458;SDS011;5277;48.722;8.736;2022-07-22T01:25:47;9.10;;;6.50;;
10458;SDS011;5277;48.722;8.736;2022-07-22T01:28:13;6.85;;;5.95;;
10458;SDS011;5277;48.722;8.736;2022-07-22T01:30:39;9.52;;;5.95;;
10458;SDS011;5277;48.722;8.736;2022-07-22T01:33:05;7.20;;;6.50;;
10458;SDS011;5277;48.722;8.736;2022-07-22T01:35:30;7.40;;;6.60;;
10458;SDS011;5277;48.722;8.736;2022-07-22T01:37:56;6.97;;;6.25;;
10458;SDS011;5277;48.722;8.736;2022-07-22T01:40:21;8.32;;;6.40;;
10458;SDS011;5277;48.722;8.736;2022-07-22T01:42:48;7.35;;;6.38;;
10458;SDS011;5277;48.722;8.736;2022-07-22T01:45:14;8.48;;;6.18;;
10458;SDS011;5277;48.722;8.736;2022-07-22T01:47:40;7.32;;;6.53;;
10458;SDS011;5277;48.722;8.736;2022-07-22T01:50:06;6.32;;;5.70;;
10458;SDS011;5277;48.722;8.736;2022-07-22T01:52:34;7.97;;;6.75;;
10458;SDS011;5277;48.722;8.736;2022-07-22T01:55:00;8.43;;;6.13;;
10458;SDS011;5277;48.722;8.736;2022-07-22T01:57:26;7.97;;;6.72;;
10458;SDS011;5277;48.722;8.736;2022-07-22T01:59:52;6.70;;;5.68;;
10458;SDS011;5277;48.722;8.736;2022-07-22T02:02:18;7.10;;;6.13;;
10458;SDS011;5277;48.722;8.736;2022-07-22T02:04:43;11.65;;;6.28;;
10458;SDS011;5277;48.722;8.736;2022-07-22T02:07:09;8.07;;;6.15;;
10458;SDS011;5277;48.722;8.736;2022-07-22T02:09:34;8.85;;;6.07;;
10458;SDS011;5277;48.722;8.736;2022-07-22T02:12:00;7.15;;;6.45;;
10458;SDS011;5277;48.722;8.736;2022-07-22T02:14:26;8.68;;;6.65;;
10458;SDS011;5277;48.722;8.736;2022-07-22T02:16:52;10.48;;;6.25;;
10458;SDS011;5277;48.722;8.736;2022-07-22T02:19:17;8.32;;;6.80;;
10458;SDS011;5277;48.722;8.736;2022-07-22T02:21:43;7.68;;;6.88;;
10458;SDS011;5277;48.722;8.736;2022-07-22T02:24:09;8.50;;;6.57;;
10458;SDS011;5277;48.722;8.736;2022-07-22T02:26:34;7.50;;;6.22;;
10458;SDS011;5277;48.722;8.736;2022-07-22T02:29:00;7.20;;;6.15;;
10458;SDS011;5277;48.722;8.736;2022-07-22T02:31:26;7.72;;;6.72;;
10458;SDS011;5277;48.722;8.736;2022-07-22T02:33:52;7.32;;;6.57;;
10458;SDS011;5277;48.722;8.736;2022-07-22T02:36:17;7.75;;;6.95;;
10458;SDS011;5277;48.722;8.736;2022-07-22T02:38:43;6.97;;;6.18;;
10458;SDS011;5277;48.722;8.736;2022-07-22T02:41:09;8.57;;;6.10;;
10458;SDS011;5277;48.722;8.736;2022-07-22T02:43:35;9.90;;;6.50;;
10458;SDS011;5277;48.722;8.736;2022-07-22T02:46:01;7.70;;;6.85;;
10458;SDS011;5277;48.722;8.736;2022-07-22T02:48:26;9.18;;;6.88;;
10458;SDS011;5277;48.722;8.736;2022-07-22T02:50:52;9.48;;;7.10;;
10458;SDS011;5277;48.722;8.736;2022-07-22T02:53:18;7.47;;;6.75;;
10458;SDS011;5277;48.722;8.736;2022-07-22T02:55:44;7.18;;;6.47;;
10458;SDS011;5277;48.722;8.736;2022-07-22T02:58:09;7.32;;;6.45;;
10458;SDS011;5277;48.722;8.736;2022-07-22T03:00:36;7.63;;;6.93;;
10458;SDS011;5277;48.722;8.736;2022-07-22T03:03:04;7.88;;;7.07;;
10458;SDS011;5277;48.722;8.736;2022-07-22T03:05:30;7.70;;;6.75;;
10458;SDS011;5277;48.722;8.736;2022-07-22T03:07:56;7.78;;;6.50;;
10458;SDS011;5277;48.722;8.736;2022-07-22T03:10:22;6.88;;;6.25;;
10458;SDS011;5277;48.722;8.736;2022-07-22T03:12:48;7.45;;;6.25;;
10458;SDS011;5277;48.722;8.736;2022-07-22T03:15:13;9.13;;;6.47;;
10458;SDS011;5277;48.722;8.736;2022-07-22T03:17:39;8.10;;;6.85;;
10458;SDS011;5277;48.722;8.736;2022-07-22T03:20:05;7.65;;;6.95;;
10458;SDS011;5277;48.722;8.736;2022-07-22T03:22:32;8.38;;;6.82;;
10458;SDS011;5277;48.722;8.736;2022-07-22T03:24:59;7.38;;;6.47;;
10458;SDS011;5277;48.722;8.736;2022-07-22T03:27:24;7.70;;;6.53;;
10458;SDS011;5277;48.722;8.736;2022-07-22T03:29:50;11.10;;;7.22;;
10458;SDS011;5277;48.722;8.736;2022-07-22T03:32:16;10.93;;;6.93;;
10458;SDS011;5277;48.722;8.736;2022-07-22T03:34:42;9.15;;;7.43;;
10458;SDS011;5277;48.722;8.736;2022-07-22T03:37:07;7.22;;;6.50;;
10458;SDS011;5277;48.722;8.736;2022-07-22T03:39:33;7.57;;;6.75;;
10458;SDS011;5277;48.722;8.736;2022-07-22T03:41:59;7.32;;;6.63;;
10458;SDS011;5277;48.722;8.736;2022-07-22T03:44:24;8.65;;;7.05;;
10458;SDS011;5277;48.722;8.736;2022-07-22T03:46:50;8.65;;;7.22;;
10458;SDS011;5277;48.722;8.736;2022-07-22T03:49:16;8.20;;;7.15;;
10458;SDS011;5277;48.722;8.736;2022-07-22T03:51:41;6.95;;;6.28;;
10458;SDS011;5277;48.722;8.736;2022-07-22T03:54:07;8.32;;;7.05;;
10458;SDS011;5277;48.722;8.736;2022-07-22T03:56:33;10.85;;;7.55;;
10458;SDS011;5277;48.722;8.736;2022-07-22T03:58:59;9.55;;;7.05;;
10458;SDS011;5277;48.722;8.736;2022-07-22T04:01:25;8.05;;;7.25;;
10458;SDS011;5277;48.722;8.736;2022-07-22T04:03:51;7.28;;;6.53;;
10458;SDS011;5277;48.722;8.736;2022-07-22T04:06:16;9.65;;;7.05;;
10458;SDS011;5277;48.722;8.736;2022-07-22T04:08:42;8.13;;;7.18;;
10458;SDS011;5277;48.722;8.736;2022-07-22T04:11:08;7.53;;;6.38;;
10458;SDS011;5277;48.722;8.736;2022-07-22T04:13:34;8.93;;;6.45;;
10458;SDS011;5277;48.722;8.736;2022-07-22T04:15:59;8.25;;;7.20;;
10458;SDS011;5277;48.722;8.736;2022-07-22T04:18:25;7.80;;;7.00;;
10458;SDS011;5277;48.722;8.736;2022-07-22T04:20:51;9.50;;;7.35;;
10458;SDS011;5277;48.722;8.736;2022-07-22T04:23:16;7.25;;;6.53;;
10458;SDS011;5277;48.722;8.736;2022-07-22T04:25:42;8.27;;;7.28;;
10458;SDS011;5277;48.722;8.736;2022-07-22T04:28:08;8.43;;;7.05;;
10458;SDS011;5277;48.722;8.736;2022-07-22T04:30:33;8.25;;;7.38;;
10458;SDS011;5277;48.722;8.736;2022-07-22T04:32:59;10.20;;;7.18;;
10458;SDS011;5277;48.722;8.736;2022-07-22T04:35:25;8.48;;;7.18;;
10458;SDS011;5277;48.722;8.736;2022-07-22T04:37:50;9.65;;;7.22;;
10458;SDS011;5277;48.722;8.736;2022-07-22T04:40:16;8.48;;;7.22;;
10458;SDS011;5277;48.722;8.736;2022-07-22T04:42:42;11.15;;;7.40;;
10458;SDS011;5277;48.722;8.736;2022-07-22T04:45:08;8.90;;;7.60;;
10458;SDS011;5277;48.722;8.736;2022-07-22T04:47:34;11.13;;;7.80;;
10458;SDS011;5277;48.722;8.736;2022-07-22T04:50:00;9.00;;;7.35;;
10458;SDS011;5277;48.722;8.736;2022-07-22T04:52:25;9.25;;;7.50;;
10458;SDS011;5277;48.722;8.736;2022-07-22T04:54:51;10.77;;;7.28;;
10458;SDS011;5277;48.722;8.736;2022-07-22T04:57:16;8.60;;;7.70;;
10458;SDS011;5277;48.722;8.736;2022-07-22T04:59:42;9.82;;;7.30;;
10458;SDS011;5277;48.722;8.736;2022-07-22T05:02:08;8.93;;;6.88;;
10458;SDS011;5277;48.722;8.736;2022-07-22T05:04:34;11.50;;;7.05;;
10458;SDS011;5277;48.722;8.736;2022-07-22T05:06:59;8.10;;;7.10;;
10458;SDS011;5277;48.722;8.736;2022-07-22T05:09:25;8.30;;;6.78;;
10458;SDS011;5277;48.722;8.736;2022-07-22T05:11:51;8.20;;;6.68;;
10458;SDS011;5277;48.722;8.736;2022-07-22T05:14:17;9.25;;;7.15;;
10458;SDS011;5277;48.722;8.736;2022-07-22T05:16:43;9.48;;;6.60;;
10458;SDS011;5277;48.722;8.736;2022-07-22T05:19:08;9.00;;;7.05;;
10458;SDS011;5277;48.722;8.736;2022-07-22T05:21:34;9.75;;;7.10;;
10458;SDS011;5277;48.722;8.736;2022-07-22T05:24:00;9.15;;;7.15;;
10458;SDS011;5277;48.722;8.736;2022-07-22T05:26:25;8.40;;;6.82;;
10458;SDS011;5277;48.722;8.736;2022-07-22T05:28:54;7.95;;;7.00;;
10458;SDS011;5277;48.722;8.736;2022-07-22T05:31:20;9.63;;;7.38;;
10458;SDS011;5277;48.722;8.736;2022-07-22T05:33:45;8.88;;;7.30;;
10458;SDS011;5277;48.722;8.736;2022-07-22T05:36:11;8.82;;;7.00;;
10458;SDS011;5277;48.722;8.736;2022-07-22T05:38:37;9.57;;;7.07;;
10458;SDS011;5277;48.722;8.736;2022-07-22T05:41:03;7.07;;;6.35;;
10458;SDS011;5277;48.722;8.736;2022-07-22T05:43:28;9.20;;;7.05;;
10458;SDS011;5277;48.722;8.736;2022-07-22T05:45:54;7.50;;;6.53;;
10458;SDS011;5277;48.722;8.736;2022-07-22T05:48:20;8.10;;;6.45;;
10458;SDS011;5277;48.722;8.736;2022-07-22T05:50:46;11.20;;;6.80;;
10458;SDS011;5277;48.722;8.736;2022-07-22T05:53:11;7.47;;;6.10;;
10458;SDS011;5277;48.722;8.736;2022-07-22T05:55:37;6.85;;;5.78;;
10458;SDS011;5277;48.722;8.736;2022-07-22T05:58:03;6.80;;;6.03;;
10458;SDS011;5277;48.722;8.736;2022-07-22T06:00:28;6.63;;;5.88;;
10458;SDS011;5277;48.722;8.736;2022-07-22T06:02:54;6.57;;;5.93;;
10458;SDS011;5277;48.722;8.736;2022-07-22T06:05:20;9.23;;;6.47;;
10458;SDS011;5277;48.722;8.736;2022-07-22T06:07:46;7.22;;;6.03;;
10458;SDS011;5277;48.722;8.736;2022-07-22T06:10:11;6.30;;;5.68;;
10458;SDS011;5277;48.722;8.736;2022-07-22T06:12:37;6.38;;;5.38;;
10458;SDS011;5277;48.722;8.736;2022-07-22T06:15:03;6.97;;;5.78;;
10458;SDS011;5277;48.722;8.736;2022-07-22T06:17:30;6.65;;;5.97;;
10458;SDS011;5277;48.722;8.736;2022-07-22T06:19:56;7.50;;;5.93;;
10458;SDS011;5277;48.722;8.736;2022-07-22T06:22:22;6.38;;;5.78;;
10458;SDS011;5277;48.722;8.736;2022-07-22T06:24:48;6.57;;;5.88;;
10458;SDS011;5277;48.722;8.736;2022-07-22T06:27:14;11.05;;;5.78;;
10458;SDS011;5277;48.722;8.736;2022-07-22T06:29:39;7.55;;;6.05;;
10458;SDS011;5277;48.722;8.736;2022-07-22T06:32:06;6.18;;;5.57;;
10458;SDS011;5277;48.722;8.736;2022-07-22T06:34:32;6.63;;;5.90;;
10458;SDS011;5277;48.722;8.736;2022-07-22T06:36:58;8.10;;;5.93;;
10458;SDS011;5277;48.722;8.736;2022-07-22T06:39:24;5.93;;;5.32;;
10458;SDS011;5277;48.722;8.736;2022-07-22T06:41:49;7.18;;;5.93;;
10458;SDS011;5277;48.722;8.736;2022-07-22T06:44:15;5.90;;;5.30;;
10458;SDS011;5277;48.722;8.736;2022-07-22T06:46:41;7.00;;;5.70;;
10458;SDS011;5277;48.722;8.736;2022-07-22T06:49:07;6.32;;;5.60;;
10458;SDS011;5277;48.722;8.736;2022-07-22T06:51:32;6.97;;;5.60;;
10458;SDS011;5277;48.722;8.736;2022-07-22T06:53:59;6.55;;;5.75;;
10458;SDS011;5277;48.722;8.736;2022-07-22T06:56:25;13.93;;;6.47;;
10458;SDS011;5277;48.722;8.736;2022-07-22T06:58:51;24.80;;;6.82;;
10458;SDS011;5277;48.722;8.736;2022-07-22T07:01:17;18.25;;;6.45;;
10458;SDS011;5277;48.722;8.736;2022-07-22T07:03:43;21.02;;;6.70;;
10458;SDS011;5277;48.722;8.736;2022-07-22T07:06:09;12.52;;;6.15;;
10458;SDS011;5277;48.722;8.736;2022-07-22T07:08:36;11.00;;;6.43;;
10458;SDS011;5277;48.722;8.736;2022-07-22T07:11:02;11.45;;;6.10;;
10458;SDS011;5277;48.722;8.736;2022-07-22T07:13:28;11.02;;;6.65;;
10458;SDS011;5277;48.722;8.736;2022-07-22T07:15:55;7.60;;;6.78;;
10458;SDS011;5277;48.722;8.736;2022-07-22T07:18:20;8.18;;;6.93;;
10458;SDS011;5277;48.722;8.736;2022-07-22T07:20:46;10.05;;;6.68;;
10458;SDS011;5277;48.722;8.736;2022-07-22T07:23:12;8.13;;;6.70;;
10458;SDS011;5277;48.722;8.736;2022-07-22T07:25:37;8.45;;;6.35;;
10458;SDS011;5277;48.722;8.736;2022-07-22T07:28:04;7.45;;;6.03;;
10458;SDS011;5277;48.722;8.736;2022-07-22T07:30:30;6.80;;;6.13;;
10458;SDS011;5277;48.722;8.736;2022-07-22T07:32:55;7.10;;;6.25;;
10458;SDS011;5277;48.722;8.736;2022-07-22T07:35:21;8.02;;;5.80;;
10458;SDS011;5277;48.722;8.736;2022-07-22T07:37:47;6.55;;;5.95;;
10458;SDS011;5277;48.722;8.736;2022-07-22T07:40:13;7.00;;;6.30;;
10458;SDS011;5277;48.722;8.736;2022-07-22T07:42:39;6.80;;;6.10;;
10458;SDS011;5277;48.722;8.736;2022-07-22T07:45:05;7.13;;;6.32;;
10458;SDS011;5277;48.722;8.736;2022-07-22T07:47:31;6.43;;;5.70;;
10458;SDS011;5277;48.722;8.736;2022-07-22T07:49:57;8.18;;;6.18;;
10458;SDS011;5277;48.722;8.736;2022-07-22T07:52:25;7.97;;;5.72;;
10458;SDS011;5277;48.722;8.736;2022-07-22T07:54:51;8.48;;;6.35;;
10458;SDS011;5277;48.722;8.736;2022-07-22T07:57:17;7.03;;;6.22;;
10458;SDS011;5277;48.722;8.736;2022-07-22T07:59:43;6.18;;;5.47;;
10458;SDS011;5277;48.722;8.736;2022-07-22T08:02:09;8.75;;;6.15;;
10458;SDS011;5277;48.722;8.736;2022-07-22T08:04:35;7.57;;;6.50;;
10458;SDS011;5277;48.722;8.736;2022-07-22T08:07:02;8.88;;;6.97;;
10458;SDS011;5277;48.722;8.736;2022-07-22T08:09:28;8.02;;;6.30;;
10458;SDS011;5277;48.722;8.736;2022-07-22T08:11:54;8.25;;;6.32;;
10458;SDS011;5277;48.722;8.736;2022-07-22T08:14:20;9.18;;;6.25;;
10458;SDS011;5277;48.722;8.736;2022-07-22T08:16:45;6.65;;;5.95;;
10458;SDS011;5277;48.722;8.736;2022-07-22T08:19:11;8.52;;;6.30;;
10458;SDS011;5277;48.722;8.736;2022-07-22T08:21:37;9.90;;;6.55;;
10458;SDS011;5277;48.722;8.736;2022-07-22T08:24:03;6.80;;;5.90;;
10458;SDS011;5277;48.722;8.736;2022-07-22T08:26:28;7.30;;;5.82;;
10458;SDS011;5277;48.722;8.736;2022-07-22T08:28:54;7.40;;;5.78;;
10458;SDS011;5277;48.722;8.736;2022-07-22T08:31:20;7.25;;;5.75;;
10458;SDS011;5277;48.722;8.736;2022-07-22T08:33:45;6.72;;;6.05;;
10458;SDS011;5277;48.722;8.736;2022-07-22T08:36:11;6.70;;;5.85;;
10458;SDS011;5277;48.722;8.736;2022-07-22T08:38:37;7.20;;;5.72;;
10458;SDS011;5277;48.722;8.736;2022-07-22T08:41:04;7.03;;;6.32;;
10458;SDS011;5277;48.722;8.736;2022-07-22T08:43:31;7.32;;;6.05;;
10458;SDS011;5277;48.722;8.736;2022-07-22T08:46:01;6.53;;;5.10;;
10458;SDS011;5277;48.722;8.736;2022-07-22T08:48:27;9.70;;;5.78;;
10458;SDS011;5277;48.722;8.736;2022-07-22T08:50:53;6.53;;;5.28;;
10458;SDS011;5277;48.722;8.736;2022-07-22T08:53:19;6.45;;;5.82;;
10458;SDS011;5277;48.722;8.736;2022-07-22T08:55:45;8.23;;;5.85;;
10458;SDS011;5277;48.722;8.736;2022-07-22T08:58:12;8.85;;;6.22;;
10458;SDS011;5277;48.722;8.736;2022-07-22T09:00:38;8.57;;;5.90;;
10458;SDS011;5277;48.722;8.736;2022-07-22T09:05:45;6.00;;;4.75;;
10458;SDS011;5277;48.722;8.736;2022-07-22T09:08:11;6.35;;;5.70;;
10458;SDS011;5277;48.722;8.736;2022-07-22T09:10:37;7.03;;;4.97;;
10458;SDS011;5277;48.722;8.736;2022-07-22T09:13:08;6.45;;;5.15;;
10458;SDS011;5277;48.722;8.736;2022-07-22T09:15:35;7.13;;;4.90;;
10458;SDS011;5277;48.722;8.736;2022-07-22T09:18:10;5.68;;;5.05;;
10458;SDS011;5277;48.722;8.736;2022-07-22T09:20:36;7.82;;;5.85;;
10458;SDS011;5277;48.722;8.736;2022-07-22T09:23:12;8.07;;;5.20;;
10458;SDS011;5277;48.722;8.736;2022-07-22T09:25:42;6.35;;;5.30;;
10458;SDS011;5277;48.722;8.736;2022-07-22T09:28:09;6.88;;;5.68;;
10458;SDS011;5277;48.722;8.736;2022-07-22T09:33:06;8.02;;;5.63;;
10458;SDS011;5277;48.722;8.736;2022-07-22T09:35:33;10.77;;;5.78;;
10458;SDS011;5277;48.722;8.736;2022-07-22T09:38:00;6.70;;;5.35;;
10458;SDS011;5277;48.722;8.736;2022-07-22T09:40:31;6.00;;;5.20;;
10458;SDS011;5277;48.722;8.736;2022-07-22T09:43:03;8.68;;;5.35;;
10458;SDS011;5277;48.722;8.736;2022-07-22T09:45:32;7.30;;;5.28;;
10458;SDS011;5277;48.722;8.736;2022-07-22T09:47:59;15.18;;;5.22;;
10458;SDS011;5277;48.722;8.736;2022-07-22T09:50:30;5.50;;;4.63;;
10458;SDS011;5277;48.722;8.736;2022-07-22T09:52:58;5.93;;;4.80;;
10458;SDS011;5277;48.722;8.736;2022-07-22T09:55:25;10.00;;;4.93;;
10458;SDS011;5277;48.722;8.736;2022-07-22T09:57:52;7.65;;;4.97;;
10458;SDS011;5277;48.722;8.736;2022-07-22T10:00:23;7.85;;;5.65;;
10458;SDS011;5277;48.722;8.736;2022-07-22T10:02:54;6.30;;;4.82;;
10458;SDS011;5277;48.722;8.736;2022-07-22T10:05:27;5.55;;;5.03;;
10458;SDS011;5277;48.722;8.736;2022-07-22T10:07:55;7.47;;;4.90;;
10458;SDS011;5277;48.722;8.736;2022-07-22T10:10:23;5.55;;;4.72;;
10458;SDS011;5277;48.722;8.736;2022-07-22T10:12:51;5.32;;;4.82;;
10458;SDS011;5277;48.722;8.736;2022-07-22T10:15:18;5.88;;;5.38;;
10458;SDS011;5277;48.722;8.736;2022-07-22T10:17:46;5.93;;;5.32;;
10458;SDS011;5277;48.722;8.736;2022-07-22T10:20:15;5.57;;;5.10;;
10458;SDS011;5277;48.722;8.736;2022-07-22T10:22:46;7.63;;;5.18;;
10458;SDS011;5277;48.722;8.736;2022-07-22T10:25:47;7.97;;;5.30;;
10458;SDS011;5277;48.722;8.736;2022-07-22T10:28:23;5.95;;;5.38;;
10458;SDS011;5277;48.722;8.736;2022-07-22T10:30:49;5.95;;;5.35;;
10458;SDS011;5277;48.722;8.736;2022-07-22T10:33:16;8.30;;;5.38;;
10458;SDS011;5277;48.722;8.736;2022-07-22T10:38:21;5.90;;;5.30;;
10458;SDS011;5277;48.722;8.736;2022-07-22T10:43:26;7.40;;;5.40;;
10458;SDS011;5277;48.722;8.736;2022-07-22T10:45:57;5.75;;;5.20;;
10458;SDS011;5277;48.722;8.736;2022-07-22T10:48:25;6.60;;;5.50;;
10458;SDS011;5277;48.722;8.736;2022-07-22T10:53:56;6.88;;;5.57;;
10458;SDS011;5277;48.722;8.736;2022-07-22T10:56:26;8.73;;;5.90;;
10458;SDS011;5277;48.722;8.736;2022-07-22T10:59:15;5.80;;;5.22;;
10458;SDS011;5277;48.722;8.736;2022-07-22T11:01:45;6.07;;;5.47;;
10458;SDS011;5277;48.722;8.736;2022-07-22T11:04:20;7.78;;;5.57;;
10458;SDS011;5277;48.722;8.736;2022-07-22T11:06:51;6.68;;;5.78;;
10458;SDS011;5277;48.722;8.736;2022-07-22T11:09:19;5.88;;;5.03;;
10458;SDS011;5277;48.722;8.736;2022-07-22T11:11:48;6.22;;;5.15;;
10458;SDS011;5277;48.722;8.736;2022-07-22T11:16:44;6.20;;;5.40;;
10458;SDS011;5277;48.722;8.736;2022-07-22T11:19:11;6.80;;;5.47;;
10458;SDS011;5277;48.722;8.736;2022-07-22T11:21:37;6.95;;;5.07;;
10458;SDS011;5277;48.722;8.736;2022-07-22T11:24:05;5.85;;;5.28;;
10458;SDS011;5277;48.722;8.736;2022-07-22T11:26:41;5.75;;;5.25;;
10458;SDS011;5277;48.722;8.736;2022-07-22T11:29:10;6.53;;;5.20;;
10458;SDS011;5277;48.722;8.736;2022-07-22T11:31:40;5.88;;;5.25;;
10458;SDS011;5277;48.722;8.736;2022-07-22T11:34:07;6.40;;;5.28;;
10458;SDS011;5277;48.722;8.736;2022-07-22T11:36:41;7.22;;;5.20;;
10458;SDS011;5277;48.722;8.736;2022-07-22T11:39:09;5.60;;;5.20;;
10458;SDS011;5277;48.722;8.736;2022-07-22T11:41:36;6.63;;;5.80;;
10458;SDS011;5277;48.722;8.736;2022-07-22T11:44:02;5.93;;;5.43;;
10458;SDS011;5277;48.722;8.736;2022-07-22T11:46:28;6.80;;;5.50;;
10458;SDS011;5277;48.722;8.736;2022-07-22T11:49:04;6.60;;;5.60;;
10458;SDS011;5277;48.722;8.736;2022-07-22T11:51:31;8.23;;;5.93;;
10458;SDS011;5277;48.722;8.736;2022-07-22T11:53:58;5.95;;;5.45;;
10458;SDS011;5277;48.722;8.736;2022-07-22T11:56:24;6.35;;;5.32;;
10458;SDS011;5277;48.722;8.736;2022-07-22T11:58:50;5.88;;;5.38;;
10458;SDS011;5277;48.722;8.736;2022-07-22T12:01:21;5.82;;;5.32;;
10458;SDS011;5277;48.722;8.736;2022-07-22T12:03:57;6.50;;;5.45;;
10458;SDS011;5277;48.722;8.736;2022-07-22T12:06:28;9.98;;;5.38;;
10458;SDS011;5277;48.722;8.736;2022-07-22T12:09:03;6.38;;;5.78;;
10458;SDS011;5277;48.722;8.736;2022-07-22T12:11:41;6.80;;;5.75;;
10458;SDS011;5277;48.722;8.736;2022-07-22T12:16:42;6.03;;;5.50;;
10458;SDS011;5277;48.722;8.736;2022-07-22T12:19:17;7.22;;;4.82;;
10458;SDS011;5277;48.722;8.736;2022-07-22T12:24:30;8.82;;;5.55;;
10458;SDS011;5277;48.722;8.736;2022-07-22T12:27:04;5.13;;;4.57;;
10458;SDS011;5277;48.722;8.736;2022-07-22T12:29:40;7.53;;;5.22;;
10458;SDS011;5277;48.722;8.736;2022-07-22T12:32:08;5.50;;;4.90;;
10458;SDS011;5277;48.722;8.736;2022-07-22T12:39:51;5.32;;;4.93;;
10458;SDS011;5277;48.722;8.736;2022-07-22T12:42:33;8.93;;;5.20;;
10458;SDS011;5277;48.722;8.736;2022-07-22T12:45:05;5.38;;;4.95;;
10458;SDS011;5277;48.722;8.736;2022-07-22T12:52:56;5.53;;;5.03;;
10458;SDS011;5277;48.722;8.736;2022-07-22T12:55:24;5.57;;;5.10;;
10458;SDS011;5277;48.722;8.736;2022-07-22T12:57:51;5.15;;;4.68;;
10458;SDS011;5277;48.722;8.736;2022-07-22T13:00:21;5.35;;;4.72;;
10458;SDS011;5277;48.722;8.736;2022-07-22T13:02:54;6.53;;;4.78;;
10458;SDS011;5277;48.722;8.736;2022-07-22T13:05:20;5.90;;;4.82;;
10458;SDS011;5277;48.722;8.736;2022-07-22T13:07:47;5.15;;;4.65;;
10458;SDS011;5277;48.722;8.736;2022-07-22T13:10:13;5.25;;;4.70;;
10458;SDS011;5277;48.722;8.736;2022-07-22T13:12:40;4.47;;;4.07;;
10458;SDS011;5277;48.722;8.736;2022-07-22T13:15:07;6.03;;;4.93;;
10458;SDS011;5277;48.722;8.736;2022-07-22T13:17:33;8.63;;;4.78;;
10458;SDS011;5277;48.722;8.736;2022-07-22T13:19:59;5.40;;;4.90;;
10458;SDS011;5277;48.722;8.736;2022-07-22T13:22:25;4.85;;;4.38;;
10458;SDS011;5277;48.722;8.736;2022-07-22T13:24:51;5.40;;;4.90;;
10458;SDS011;5277;48.722;8.736;2022-07-22T13:27:16;7.00;;;4.78;;
10458;SDS011;5277;48.722;8.736;2022-07-22T13:29:42;5.20;;;4.70;;
10458;SDS011;5277;48.722;8.736;2022-07-22T13:32:08;6.32;;;4.50;;
10458;SDS011;5277;48.722;8.736;2022-07-22T13:34:33;6.53;;;4.25;;
10458;SDS011;5277;48.722;8.736;2022-07-22T13:37:00;4.90;;;4.50;;
10458;SDS011;5277;48.722;8.736;2022-07-22T13:39:27;5.38;;;4.88;;
10458;SDS011;5277;48.722;8.736;2022-07-22T13:41:53;5.00;;;4.18;;
10458;SDS011;5277;48.722;8.736;2022-07-22T13:44:18;6.40;;;4.07;;
10458;SDS011;5277;48.722;8.736;2022-07-22T13:46:44;6.43;;;4.35;;
10458;SDS011;5277;48.722;8.736;2022-07-22T13:49:10;5.32;;;4.70;;
10458;SDS011;5277;48.722;8.736;2022-07-22T13:51:36;10.25;;;4.72;;
10458;SDS011;5277;48.722;8.736;2022-07-22T13:54:02;5.32;;;4.10;;
10458;SDS011;5277;48.722;8.736;2022-07-22T13:56:29;5.47;;;4.57;;
10458;SDS011;5277;48.722;8.736;2022-07-22T13:58:57;16.42;;;5.10;;
10458;SDS011;5277;48.722;8.736;2022-07-22T14:01:23;5.20;;;4.15;;
10458;SDS011;5277;48.722;8.736;2022-07-22T14:03:48;5.07;;;4.63;;
10458;SDS011;5277;48.722;8.736;2022-07-22T14:06:14;5.50;;;4.80;;
10458;SDS011;5277;48.722;8.736;2022-07-22T14:08:40;5.43;;;4.80;;
10458;SDS011;5277;48.722;8.736;2022-07-22T14:11:05;10.02;;;4.63;;
10458;SDS011;5277;48.722;8.736;2022-07-22T14:13:31;5.72;;;4.43;;
10458;SDS011;5277;48.722;8.736;2022-07-22T14:15:57;5.78;;;4.50;;
10458;SDS011;5277;48.722;8.736;2022-07-22T14:18:42;5.05;;;4.55;;
10458;SDS011;5277;48.722;8.736;2022-07-22T14:21:08;10.23;;;5.05;;
10458;SDS011;5277;48.722;8.736;2022-07-22T14:23:33;4.97;;;4.50;;
10458;SDS011;5277;48.722;8.736;2022-07-22T14:25:59;5.20;;;4.05;;
10458;SDS011;5277;48.722;8.736;2022-07-22T14:28:25;7.13;;;4.88;;
10458;SDS011;5277;48.722;8.736;2022-07-22T14:30:50;4.75;;;4.30;;
10458;SDS011;5277;48.722;8.736;2022-07-22T14:33:16;6.60;;;4.50;;
10458;SDS011;5277;48.722;8.736;2022-07-22T14:35:42;7.68;;;4.53;;
10458;SDS011;5277;48.722;8.736;2022-07-22T14:38:07;9.15;;;4.78;;
10458;SDS011;5277;48.722;8.736;2022-07-22T14:40:33;11.55;;;4.90;;
10458;SDS011;5277;48.722;8.736;2022-07-22T14:42:59;4.68;;;4.28;;
10458;SDS011;5277;48.722;8.736;2022-07-22T14:45:24;6.82;;;4.78;;
10458;SDS011;5277;48.722;8.736;2022-07-22T14:47:50;13.93;;;5.15;;
10458;SDS011;5277;48.722;8.736;2022-07-22T14:50:16;5.97;;;4.57;;
10458;SDS011;5277;48.722;8.736;2022-07-22T14:52:42;5.82;;;5.22;;
10458;SDS011;5277;48.722;8.736;2022-07-22T14:55:08;8.60;;;4.50;;
10458;SDS011;5277;48.722;8.736;2022-07-22T14:57:33;5.97;;;4.55;;
10458;SDS011;5277;48.722;8.736;2022-07-22T14:59:59;5.00;;;4.50;;
10458;SDS011;5277;48.722;8.736;2022-07-22T15:02:25;5.88;;;4.35;;
10458;SDS011;5277;48.722;8.736;2022-07-22T15:04:50;6.03;;;4.70;;
10458;SDS011;5277;48.722;8.736;2022-07-22T15:07:16;5.05;;;4.45;;
10458;SDS011;5277;48.722;8.736;2022-07-22T15:09:41;5.93;;;5.20;;
10458;SDS011;5277;48.722;8.736;2022-07-22T15:12:07;6.13;;;4.82;;
10458;SDS011;5277;48.722;8.736;2022-07-22T15:14:33;5.03;;;4.45;;
10458;SDS011;5277;48.722;8.736;2022-07-22T15:16:59;10.52;;;5.20;;
10458;SDS011;5277;48.722;8.736;2022-07-22T15:19:24;13.15;;;4.75;;
10458;SDS011;5277;48.722;8.736;2022-07-22T15:21:50;13.40;;;5.13;;
10458;SDS011;5277;48.722;8.736;2022-07-22T15:24:15;6.05;;;4.60;;
10458;SDS011;5277;48.722;8.736;2022-07-22T15:26:41;4.55;;;4.15;;
10458;SDS011;5277;48.722;8.736;2022-07-22T15:29:07;11.25;;;4.65;;